Time;durP1;ratioP1;P1;durP2;ratioP2;P2;SDS_P1;SDS_P2;PMS_P1;PMS_P2;Temp;Humidity;BMP_temperature;BMP_pressure;BME280_temperature;BME280_humidity;BME280_pressure;Samples;Min_cycle;Max_cycle;Signal;HPM_P1;HPM_P2
2024/02/05 00:01:23;;;;;;;8.50;3.50;;;;;;;2.77;83.21;97939.85;79516;1301;3012742;-70
2024/02/05 00:03:51;;;;;;;10.80;4.10;;;;;;;2.63;83.47;97947.85;78417;1297;3025952;-68
2024/02/05 00:06:18;;;;;;;12.40;3.90;;;;;;;2.32;84.77;97939.59;79613;1295;3012937;-69
2024/02/05 00:08:45;;;;;;;11.40;4.10;;;;;;;2.19;85.36;97936.83;79648;1295;3011564;-71
2024/02/05 00:11:13;;;;;;;7.00;3.50;;;;;;;1.97;86.29;97936.88;78543;1295;3026303;-72
2024/02/05 00:13:40;;;;;;;8.10;2.60;;;;;;;1.87;87.74;97943.05;79975;1300;3013166;-72
2024/02/05 00:16:08;;;;;;;7.40;2.90;;;;;;;2.66;86.54;97942.48;79673;1299;3011596;-70
2024/02/05 00:18:36;;;;;;;6.90;3.40;;;;;;;3.47;82.64;97931.23;78167;1295;3068547;-73
2024/02/05 00:21:03;;;;;;;8.30;2.70;;;;;;;2.99;82.09;97917.05;79467;1295;3015089;-71
2024/02/05 00:23:30;;;;;;;7.80;3.10;;;;;;;2.76;83.60;97927.30;79458;1295;3013612;-70
2024/02/05 00:25:59;;;;;;;7.50;2.80;;;;;;;2.50;84.32;97924.15;78157;1301;3052611;-69
2024/02/05 00:28:25;;;;;;;9.50;3.10;;;;;;;2.22;85.26;97920.77;79513;1299;3013697;-70
2024/02/05 00:30:52;;;;;;;10.50;3.30;;;;;;;2.10;85.98;97922.04;79606;1299;3011875;-70
2024/02/05 00:33:20;;;;;;;7.90;3.60;;;;;;;1.89;86.89;97913.47;78219;1295;3028866;-69
2024/02/05 00:35:47;;;;;;;6.30;2.10;;;;;;;1.97;86.89;97919.62;79539;1295;3012999;-70
2024/02/05 00:38:14;;;;;;;6.30;2.50;;;;;;;2.90;85.49;97912.02;79491;1299;3011794;-66
2024/02/05 00:40:44;;;;;;;6.60;2.90;;;;;;;3.28;83.15;97909.94;78318;1296;3025912;-65
2024/02/05 00:43:11;;;;;;;5.10;2.80;;;;;;;3.10;82.56;97910.77;79606;1299;3012961;-68
2024/02/05 00:45:37;;;;;;;6.80;3.10;;;;;;;2.93;82.79;97904.04;79322;1299;3011891;-68
2024/02/05 00:48:06;;;;;;;9.50;4.50;;;;;;;2.43;84.24;97901.20;78222;1295;3068569;-68
2024/02/05 00:50:32;;;;;;;13.30;7.00;;;;;;;2.40;84.36;97899.13;79553;1295;3013118;-69
2024/02/05 00:52:59;;;;;;;13.80;6.40;;;;;;;1.97;86.15;97898.17;79575;1295;3011892;-70
2024/02/05 00:55:27;;;;;;;5.00;3.40;;;;;;;1.89;86.51;97896.00;78236;1295;3028358;-71
2024/02/05 00:57:54;;;;;;;7.60;4.60;;;;;;;2.01;87.36;97893.16;79430;1299;3014770;-72
2024/02/05 01:00:23;;;;;;;8.20;4.00;;;;;;;2.29;87.02;97887.42;79424;1300;3012911;-70
2024/02/05 01:02:51;;;;;;;9.50;4.10;;;;;;;2.54;85.36;97883.36;78326;1296;3069123;-71
2024/02/05 01:05:18;;;;;;;6.90;3.50;;;;;;;2.40;85.70;97877.02;79463;1295;3012970;-68
2024/02/05 01:07:45;;;;;;;8.20;2.90;;;;;;;2.26;85.63;97876.33;79464;1301;3011918;-69
2024/02/05 01:10:14;;;;;;;8.90;3.40;;;;;;;1.99;86.61;97875.46;78173;1299;3026003;-71
2024/02/05 01:12:41;;;;;;;6.80;3.40;;;;;;;1.81;86.90;97873.96;79634;1299;3013128;-69
2024/02/05 01:15:08;;;;;;;6.50;2.90;;;;;;;1.61;88.18;97873.58;79469;1300;3011664;-68
2024/02/05 01:17:36;;;;;;;7.30;3.10;;;;;;;1.93;87.06;97869.73;78320;1296;3068785;-70
2024/02/05 01:20:10;;;;;;;7.30;2.80;;;;;;;2.25;86.82;97864.96;79429;1300;3018563;-72
2024/02/05 01:22:38;;;;;;;10.70;2.30;;;;;;;2.49;85.32;97864.91;78366;1295;3049521;-71
2024/02/05 01:25:05;;;;;;;6.30;2.10;;;;;;;2.22;85.36;97860.28;79472;1301;3012807;-70
2024/02/05 01:27:33;;;;;;;4.50;1.80;;;;;;;1.88;86.93;97862.23;79482;1295;3011589;-71
2024/02/05 01:30:01;;;;;;;3.90;2.30;;;;;;;1.81;86.86;97854.80;78272;1300;3051913;-70
2024/02/05 01:32:28;;;;;;;6.80;2.10;;;;;;;1.61;87.70;97854.60;79535;1301;3013434;-67
2024/02/05 01:34:54;;;;;;;3.10;1.70;;;;;;;1.46;88.66;97852.20;79520;1300;3012102;-70
2024/02/05 01:37:22;;;;;;;6.30;1.90;;;;;;;2.04;87.23;97855.16;78155;1295;3026487;-70
2024/02/05 01:39:49;;;;;;;4.60;2.00;;;;;;;2.17;86.99;97847.27;79393;1295;3013173;-67
2024/02/05 01:42:16;;;;;;;3.50;1.70;;;;;;;2.33;85.41;97847.10;79578;1300;3011634;-69
2024/02/05 01:44:44;;;;;;;4.50;1.90;;;;;;;2.09;85.70;97846.45;78122;1299;3026148;-70
2024/02/05 01:47:11;;;;;;;4.80;1.90;;;;;;;1.87;86.05;97849.99;79363;1295;3013777;-68
2024/02/05 01:49:37;;;;;;;3.70;1.90;;;;;;;1.69;86.51;97848.69;79464;1295;3013469;-66
2024/02/05 01:52:08;;;;;;;3.70;1.60;;;;;;;1.42;87.90;97847.41;78172;1300;3026354;-70
2024/02/05 01:54:36;;;;;;;7.00;1.70;;;;;;;1.40;88.59;97844.91;79509;1295;3012895;-71
2024/02/05 01:57:06;;;;;;;9.50;1.60;;;;;;;2.08;87.18;97836.30;78267;1300;3026120;-72
2024/02/05 01:59:33;;;;;;;3.00;1.30;;;;;;;2.66;84.01;97830.16;79727;1295;3013205;-72
2024/02/05 02:02:00;;;;;;;9.40;2.30;;;;;;;2.58;83.33;97828.87;79784;1295;3011630;-70
2024/02/05 02:04:28;;;;;;;8.30;2.50;;;;;;;2.21;84.03;97825.80;78424;1301;3051493;-69
2024/02/05 02:06:55;;;;;;;7.00;3.10;;;;;;;2.19;83.59;97822.42;79420;1295;3021063;-70
2024/02/05 02:09:22;;;;;;;8.30;2.90;;;;;;;1.79;84.87;97823.49;79371;1299;3011857;-71
2024/02/05 02:11:50;;;;;;;9.80;3.00;;;;;;;1.54;86.15;97826.77;78400;1295;3025377;-72
2024/02/05 02:14:19;;;;;;;9.90;3.00;;;;;;;1.42;87.18;97812.90;79614;1295;3014030;-70
2024/02/05 02:16:45;;;;;;;6.10;2.20;;;;;;;1.51;87.11;97810.05;79315;1300;3011716;-71
2024/02/05 02:19:16;;;;;;;4.80;2.50;;;;;;;2.06;86.22;97805.83;78167;1298;3051035;-72
2024/02/05 02:21:43;;;;;;;6.00;3.20;;;;;;;2.38;84.52;97797.45;79264;1295;3013576;-66
2024/02/05 02:24:12;;;;;;;7.90;2.90;;;;;;;2.56;83.15;97793.36;79101;1295;3011464;-68
2024/02/05 02:26:39;;;;;;;9.30;3.10;;;;;;;2.20;83.96;97786.43;79274;1301;3012853;-68
2024/02/05 02:29:06;;;;;;;6.10;3.10;;;;;;;2.21;83.71;97785.36;79421;1296;3013157;-66
2024/02/05 02:31:34;;;;;;;9.40;3.00;;;;;;;1.87;84.67;97779.54;78363;1296;3026152;-66
2024/02/05 02:34:15;;;;;;;8.90;2.10;;;;;;;1.98;84.81;97784.88;79373;1300;3012869;-68
2024/02/05 02:36:50;;;;;;;7.20;2.20;;;;;;;1.68;85.15;97788.46;78375;1301;3057042;-66
2024/02/05 02:39:21;;;;;;;4.50;1.90;;;;;;;1.77;85.23;97788.52;78852;1301;3011614;-67
2024/02/05 02:41:47;;;;;;;3.40;1.80;;;;;;;2.23;84.49;97780.59;79504;1295;3013018;-68
2024/02/05 02:44:15;;;;;;;4.00;1.40;;;;;;;2.95;82.77;97784.97;79569;1297;3011625;-69
2024/02/05 02:46:43;;;;;;;5.10;2.20;;;;;;;2.79;80.87;97782.89;78372;1300;3053277;-67
2024/02/05 02:49:10;;;;;;;4.10;1.90;;;;;;;2.36;82.26;97768.14;79567;1299;3013097;-69
2024/02/05 02:51:37;;;;;;;9.70;3.00;;;;;;;2.18;83.38;97764.14;79423;1299;3013314;-67
2024/02/05 02:54:06;;;;;;;12.90;3.90;;;;;;;2.05;84.14;97757.90;78205;1295;3056654;-66
2024/02/05 02:56:33;;;;;;;8.80;3.20;;;;;;;1.91;84.69;97761.20;79534;1295;3013258;-67
2024/02/05 02:59:00;;;;;;;7.30;2.50;;;;;;;1.97;84.27;97760.90;79325;1295;3012036;-70
2024/02/05 03:01:28;;;;;;;8.00;2.30;;;;;;;1.80;84.60;97751.59;78288;1300;3025912;-68
2024/02/05 03:03:55;;;;;;;12.70;5.40;;;;;;;2.29;84.44;97741.95;79437;1300;3012951;-69
2024/02/05 03:06:22;;;;;;;8.90;3.50;;;;;;;2.58;83.60;97743.29;79571;1295;3013752;-67
2024/02/05 03:08:50;;;;;;;11.10;3.70;;;;;;;2.74;82.17;97735.30;78353;1295;3056658;-66
2024/02/05 03:11:16;;;;;;;7.70;3.50;;;;;;;2.59;82.34;97734.77;79440;1295;3011685;-69
2024/02/05 03:13:43;;;;;;;17.40;7.60;;;;;;;2.23;83.31;97725.69;79469;1295;3011689;-68
2024/02/05 03:16:11;;;;;;;48.60;22.60;;;;;;;2.08;84.24;97724.08;78078;1301;3028859;-66
2024/02/05 03:18:38;;;;;;;30.50;12.40;;;;;;;1.95;84.63;97728.17;79480;1295;3013558;-69
2024/02/05 03:21:05;;;;;;;13.30;6.20;;;;;;;2.01;84.26;97717.34;79494;1300;3011667;-68
2024/02/05 03:23:33;;;;;;;18.80;6.10;;;;;;;1.78;85.27;97714.06;78204;1297;3026653;-68
2024/02/05 03:25:59;;;;;;;7.70;3.00;;;;;;;1.75;85.60;97721.83;79732;1295;3013021;-70
2024/02/05 03:28:28;;;;;;;7.90;3.20;;;;;;;2.17;85.34;97709.59;79441;1296;3012129;-66
2024/02/05 03:30:56;;;;;;;16.30;5.50;;;;;;;2.68;83.29;97703.30;78165;1296;3051938;-67
2024/02/05 03:33:24;;;;;;;40.90;15.30;;;;;;;2.67;82.55;97705.41;79707;1300;3018299;-71
2024/02/05 03:35:51;;;;;;;19.30;7.40;;;;;;;2.57;82.89;97696.13;79546;1295;3011696;-69
2024/02/05 03:38:19;;;;;;;12.80;4.90;;;;;;;2.44;82.98;97685.11;78132;1298;3056395;-65
2024/02/05 03:40:46;;;;;;;14.10;4.50;;;;;;;2.41;83.19;97676.14;79327;1295;3018481;-68
2024/02/05 03:43:12;;;;;;;26.50;11.20;;;;;;;2.20;83.71;97677.81;79512;1295;3013621;-70
2024/02/05 03:45:40;;;;;;;20.40;8.50;;;;;;;2.07;84.38;97673.65;78136;1301;3026239;-64
2024/02/05 03:48:08;;;;;;;11.50;5.60;;;;;;;2.06;85.04;97671.47;79587;1295;3015558;-70
2024/02/05 03:50:35;;;;;;;10.70;4.10;;;;;;;1.99;85.47;97667.05;79373;1295;3011697;-67
2024/02/05 03:53:04;;;;;;;10.20;4.10;;;;;;;2.52;84.63;97659.82;78198;1298;3056379;-67
2024/02/05 03:55:31;;;;;;;9.40;3.70;;;;;;;3.00;82.90;97653.41;79504;1295;3013633;-70
2024/02/05 03:58:05;;;;;;;7.80;4.40;;;;;;;2.93;82.21;97661.95;79613;1295;3011573;-68
2024/02/05 04:00:35;;;;;;;8.80;4.80;;;;;;;2.70;82.60;97657.02;78452;1301;3052870;-66
2024/02/05 04:03:02;;;;;;;9.70;5.00;;;;;;;2.34;83.98;97638.81;79702;1300;3011553;-70
2024/02/05 04:05:31;;;;;;;14.20;5.40;;;;;;;2.35;84.46;97632.55;79704;1295;3011467;-69
2024/02/05 04:07:59;;;;;;;7.40;4.10;;;;;;;2.30;84.14;97622.30;78330;1298;3056087;-67
2024/02/05 04:10:26;;;;;;;7.90;3.60;;;;;;;2.13;84.67;97620.48;79501;1295;3013509;-68
2024/02/05 04:12:55;;;;;;;30.40;8.70;;;;;;;1.89;86.02;97617.83;79511;1295;3012100;-67
2024/02/05 04:15:23;;;;;;;15.50;5.30;;;;;;;2.00;86.24;97626.56;78340;1301;3051408;-69
2024/02/05 04:17:49;;;;;;;9.50;4.40;;;;;;;2.13;86.34;97616.33;79660;1300;3013429;-69
2024/02/05 04:20:16;;;;;;;10.30;4.30;;;;;;;2.82;84.41;97626.03;79923;1295;3011760;-69
2024/02/05 04:22:44;;;;;;;11.40;3.20;;;;;;;2.94;82.60;97608.27;78416;1299;3028818;-69
2024/02/05 04:25:12;;;;;;;6.90;3.20;;;;;;;2.82;82.75;97613.63;79975;1295;3018489;-69
2024/02/05 04:27:38;;;;;;;7.90;3.30;;;;;;;2.53;83.40;97619.45;79593;1301;3011714;-67
2024/02/05 04:30:07;;;;;;;5.90;3.40;;;;;;;2.32;84.34;97626.83;78478;1299;3051916;-72
2024/02/05 04:32:34;;;;;;;6.00;2.70;;;;;;;2.28;84.60;97613.62;79528;1294;3013955;-69
2024/02/05 04:37:59;;;;;;;5.20;2.20;;;;;;;2.07;86.54;97613.25;80151;1302;3013057;-72
2024/02/05 04:40:26;;;;;;;8.80;3.10;;;;;;;2.82;85.43;97603.40;79175;1307;3013014;-70
2024/02/05 04:42:53;;;;;;;3.00;2.10;;;;;;;3.22;82.77;97602.95;79100;1305;3011538;-69
2024/02/05 04:45:21;;;;;;;7.20;3.00;;;;;;;2.85;83.31;97596.49;78175;1307;3053194;-69
2024/02/05 04:47:48;;;;;;;9.60;3.00;;;;;;;2.76;84.04;97597.73;79309;1302;3011444;-69
2024/02/05 04:50:14;;;;;;;6.30;2.90;;;;;;;2.51;84.77;97601.91;78960;1302;3011359;-68
2024/02/05 04:52:42;;;;;;;7.50;3.00;;;;;;;2.26;86.31;97593.67;78631;1301;3026636;-68
2024/02/05 04:55:09;;;;;;;8.40;2.80;;;;;;;2.18;86.35;97583.10;79504;1300;3013296;-68
2024/02/05 04:57:35;;;;;;;18.30;7.30;;;;;;;1.97;87.92;97592.34;79437;1298;3011659;-72
2024/02/05 05:00:05;;;;;;;6.40;3.60;;;;;;;1.86;89.61;97588.11;78512;1297;3026663;-70
2024/02/05 05:02:33;;;;;;;7.30;3.10;;;;;;;2.51;88.49;97583.61;79426;1301;3015829;-68
2024/02/05 05:05:02;;;;;;;22.10;8.80;;;;;;;3.05;85.67;97575.63;79217;1296;3011442;-67
2024/02/05 05:07:30;;;;;;;7.40;4.00;;;;;;;2.69;86.41;97580.52;79560;1295;3012968;-68
2024/02/05 05:09:57;;;;;;;5.30;2.90;;;;;;;2.82;85.96;97575.98;79499;1295;3011899;-67
2024/02/05 05:12:25;;;;;;;6.20;3.10;;;;;;;2.60;86.48;97573.10;77992;1301;3049955;-67
2024/02/05 05:14:52;;;;;;;10.20;4.10;;;;;;;2.35;87.71;97569.69;79448;1301;3015025;-68
2024/02/05 05:17:19;;;;;;;9.80;4.60;;;;;;;2.35;88.22;97556.90;79631;1299;3011773;-67
2024/02/05 05:19:48;;;;;;;12.20;5.40;;;;;;;2.18;89.29;97563.55;78433;1295;3049753;-71
2024/02/05 05:22:15;;;;;;;7.20;3.20;;;;;;;2.20;90.38;97555.69;79667;1295;3015481;-67
2024/02/05 05:24:43;;;;;;;6.80;3.00;;;;;;;2.81;88.12;97559.59;79499;1301;3013345;-68
2024/02/05 05:27:11;;;;;;;5.30;2.70;;;;;;;3.13;86.81;97547.09;78386;1301;3050114;-68
2024/02/05 05:29:38;;;;;;;18.80;6.40;;;;;;;3.11;86.21;97549.98;79570;1300;3020300;-67
2024/02/05 05:32:05;;;;;;;8.80;3.90;;;;;;;3.00;86.63;97548.76;79462;1298;3011930;-71
2024/02/05 05:34:34;;;;;;;8.30;4.20;;;;;;;2.64;87.99;97543.25;78564;1295;3027117;-71
2024/02/05 05:37:01;;;;;;;8.40;4.40;;;;;;;2.61;88.31;97538.29;79606;1296;3013894;-69
2024/02/05 05:39:29;;;;;;;8.10;3.30;;;;;;;2.29;89.77;97555.50;79648;1300;3012841;-71
2024/02/05 05:41:57;;;;;;;6.80;3.80;;;;;;;2.34;90.40;97545.36;78281;1300;3049503;-71
2024/02/05 05:44:24;;;;;;;12.40;4.10;;;;;;;2.91;89.24;97563.48;79548;1300;3020724;-73
2024/02/05 05:46:51;;;;;;;10.80;5.00;;;;;;;3.11;88.17;97557.78;79607;1300;3011779;-70
2024/02/05 05:49:18;;;;;;;10.10;4.90;;;;;;;3.30;87.20;97558.89;78210;1295;3027240;-70
2024/02/05 05:51:45;;;;;;;12.90;5.40;;;;;;;3.26;86.55;97562.06;79568;1295;3013326;-71
2024/02/05 05:54:13;;;;;;;10.50;4.90;;;;;;;2.87;87.71;97562.02;79533;1298;3011690;-71
2024/02/05 05:56:41;;;;;;;9.60;4.30;;;;;;;2.70;88.67;97553.80;78349;1300;3049795;-67
2024/02/05 05:59:08;;;;;;;8.00;3.40;;;;;;;2.74;88.50;97561.70;79469;1301;3013096;-69
2024/02/05 06:01:35;;;;;;;8.10;2.90;;;;;;;2.58;89.05;97556.56;79409;1299;3011538;-67
2024/02/05 06:04:03;;;;;;;7.20;2.60;;;;;;;2.95;89.61;97556.82;78200;1295;3051744;-68
2024/02/05 06:06:33;;;;;;;6.10;2.90;;;;;;;3.40;86.89;97554.27;79311;1299;3019340;-68
2024/02/05 06:09:04;;;;;;;5.70;2.70;;;;;;;3.29;86.44;97567.59;78974;1296;3011345;-70
2024/02/05 06:11:32;;;;;;;8.50;3.10;;;;;;;3.05;87.04;97553.13;79586;1295;3011542;-69
2024/02/05 06:14:01;;;;;;;7.20;3.50;;;;;;;2.87;88.43;97549.55;78905;1298;3011962;-72
2024/02/05 06:16:28;;;;;;;8.80;3.40;;;;;;;2.77;88.29;97541.84;79835;1298;3012508;-69
2024/02/05 06:18:54;;;;;;;9.00;3.10;;;;;;;2.67;89.07;97555.40;79583;1300;3013391;-70
2024/02/05 06:21:22;;;;;;;7.20;2.80;;;;;;;2.63;89.96;97543.34;78274;1300;3028031;-66
2024/02/05 06:23:49;;;;;;;7.10;2.80;;;;;;;3.40;87.91;97563.28;79526;1295;3013287;-66
2024/02/05 06:26:15;;;;;;;8.50;2.90;;;;;;;3.36;86.82;97555.57;79561;1295;3013299;-67
2024/02/05 06:28:43;;;;;;;5.00;3.00;;;;;;;3.52;85.96;97550.59;78270;1295;3026193;-66
2024/02/05 06:31:12;;;;;;;10.30;3.80;;;;;;;3.24;86.25;97552.52;79579;1298;3013573;-69
2024/02/05 06:33:39;;;;;;;10.60;3.90;;;;;;;3.20;86.75;97545.84;79714;1298;3011632;-71
2024/02/05 06:36:08;;;;;;;9.90;4.00;;;;;;;3.01;87.41;97540.41;78439;1301;3050451;-67
2024/02/05 06:38:35;;;;;;;7.10;3.30;;;;;;;2.75;88.85;97551.65;79888;1295;3014696;-67
2024/02/05 06:41:02;;;;;;;7.20;3.30;;;;;;;2.74;89.68;97529.55;79520;1295;3011958;-66
2024/02/05 06:43:33;;;;;;;10.10;4.40;;;;;;;3.45;87.51;97529.94;78385;1301;3051372;-71
2024/02/05 06:46:00;;;;;;;9.80;3.90;;;;;;;3.69;86.09;97532.04;79653;1295;3013432;-69
2024/02/05 06:48:34;;;;;;;4.90;3.20;;;;;;;3.41;86.26;97542.97;78920;1295;3012199;-67
2024/02/05 06:51:01;;;;;;;5.10;3.10;;;;;;;3.61;85.87;97519.57;79389;1295;3013151;-69
2024/02/05 06:53:30;;;;;;;8.40;3.10;;;;;;;3.62;84.90;97515.00;78170;1300;3051840;-70
2024/02/05 06:55:57;;;;;;;8.10;3.40;;;;;;;3.40;85.41;97518.65;79453;1295;3013518;-73
2024/02/05 06:58:24;;;;;;;6.70;2.70;;;;;;;3.17;86.64;97524.05;79275;1295;3013663;-71
2024/02/05 07:00:53;;;;;;;7.50;2.90;;;;;;;3.68;86.37;97513.41;78429;1298;3050144;-71
2024/02/05 07:03:21;;;;;;;8.40;3.70;;;;;;;4.08;84.58;97523.67;79760;1298;3013018;-70
2024/02/05 07:05:48;;;;;;;10.50;3.90;;;;;;;3.81;84.91;97516.91;79522;1297;3013470;-69
2024/02/05 07:08:16;;;;;;;10.80;3.40;;;;;;;3.53;85.75;97514.39;78283;1301;3049700;-65
2024/02/05 07:10:44;;;;;;;6.20;2.80;;;;;;;3.40;86.57;97502.55;79463;1295;3013017;-70
2024/02/05 07:13:11;;;;;;;6.30;3.30;;;;;;;3.46;86.20;97492.33;79433;1295;3013100;-70
2024/02/05 07:15:39;;;;;;;6.70;3.00;;;;;;;3.25;86.93;97484.29;78192;1301;3051251;-70
2024/02/05 07:18:05;;;;;;;7.50;3.80;;;;;;;3.35;87.62;97476.55;79387;1300;3013091;-69
2024/02/05 07:20:32;;;;;;;10.60;4.30;;;;;;;3.87;86.36;97473.39;79441;1300;3011784;-70
2024/02/05 07:23:00;;;;;;;8.20;4.10;;;;;;;3.99;85.20;97473.45;78173;1295;3027355;-71
2024/02/05 07:25:27;;;;;;;8.10;4.10;;;;;;;4.23;83.81;97476.41;79549;1299;3013223;-72
2024/02/05 07:27:53;;;;;;;6.20;3.90;;;;;;;3.60;86.10;97465.13;79400;1300;3013236;-72
2024/02/05 07:30:21;;;;;;;9.10;4.70;;;;;;;3.72;86.21;97469.88;78320;1301;3025830;-71
2024/02/05 07:32:48;;;;;;;12.80;4.80;;;;;;;3.56;86.05;97466.42;79532;1301;3013434;-68
2024/02/05 07:35:15;;;;;;;9.00;5.10;;;;;;;3.31;87.57;97456.88;79410;1296;3013010;-68
2024/02/05 07:37:43;;;;;;;8.00;4.30;;;;;;;3.65;86.51;97472.75;78263;1301;3028905;-70
2024/02/05 07:40:10;;;;;;;8.10;3.50;;;;;;;4.06;85.39;97465.06;79642;1300;3018644;-71
2024/02/05 07:42:37;;;;;;;9.80;3.80;;;;;;;4.21;84.45;97467.01;79484;1300;3011814;-67
2024/02/05 07:45:05;;;;;;;6.80;3.40;;;;;;;4.57;83.21;97463.79;78376;1301;3026105;-71
2024/02/05 07:47:34;;;;;;;9.90;5.10;;;;;;;4.24;83.47;97461.43;79540;1298;3011612;-72
2024/02/05 07:50:03;;;;;;;9.50;5.30;;;;;;;4.11;83.90;97452.41;79084;1298;3013489;-70
2024/02/05 07:52:30;;;;;;;6.40;3.70;;;;;;;3.71;85.74;97456.60;79484;1295;3011548;-70
2024/02/05 07:54:57;;;;;;;11.80;5.30;;;;;;;3.76;85.76;97447.48;79405;1295;3011551;-70
2024/02/05 07:57:25;;;;;;;7.60;4.30;;;;;;;3.99;86.27;97440.96;78261;1301;3048071;-69
2024/02/05 07:59:52;;;;;;;8.10;3.80;;;;;;;4.41;85.04;97446.83;79550;1295;3013638;-72
2024/02/05 08:02:18;;;;;;;12.40;5.60;;;;;;;4.68;83.35;97432.69;79700;1301;3011620;-72
2024/02/05 08:04:46;;;;;;;8.20;4.80;;;;;;;4.83;82.57;97423.86;78281;1295;3026186;-71
2024/02/05 08:07:13;;;;;;;11.70;5.80;;;;;;;4.76;82.40;97418.43;79434;1295;3013645;-70
2024/02/05 08:09:40;;;;;;;10.10;4.80;;;;;;;4.70;82.92;97422.63;79369;1295;3011663;-71
2024/02/05 08:12:08;;;;;;;9.40;4.20;;;;;;;4.78;82.25;97408.23;78148;1300;3028823;-68
2024/02/05 08:14:34;;;;;;;8.00;3.50;;;;;;;4.80;82.06;97415.34;79416;1301;3012976;-72
2024/02/05 08:17:01;;;;;;;5.90;2.90;;;;;;;4.72;82.50;97410.68;79537;1298;3011633;-68
2024/02/05 08:19:29;;;;;;;7.00;2.80;;;;;;;5.45;80.92;97421.52;78307;1296;3026473;-72
2024/02/05 08:21:55;;;;;;;10.50;3.00;;;;;;;6.01;77.50;97416.45;79580;1295;3011546;-71
2024/02/05 08:24:22;;;;;;;5.90;3.00;;;;;;;5.82;77.61;97394.69;79459;1295;3012047;-70
2024/02/05 08:26:50;;;;;;;5.70;3.30;;;;;;;5.66;77.87;97394.85;78287;1301;3026425;-72
2024/02/05 08:29:18;;;;;;;4.70;2.90;;;;;;;5.53;78.47;97398.09;79421;1301;3018495;-71
2024/02/05 08:31:45;;;;;;;4.70;2.60;;;;;;;5.43;78.19;97393.73;79748;1296;3011535;-70
2024/02/05 08:34:13;;;;;;;4.80;3.20;;;;;;;5.34;78.90;97407.90;78224;1301;3052236;-69
2024/02/05 08:36:40;;;;;;;5.70;3.20;;;;;;;5.11;79.63;97387.52;79734;1295;3013152;-69
2024/02/05 08:39:09;;;;;;;4.90;2.30;;;;;;;5.04;80.22;97391.29;79964;1298;3011625;-70
2024/02/05 08:41:38;;;;;;;5.70;2.70;;;;;;;5.05;80.31;97375.61;78769;1298;3048933;-70
2024/02/05 08:44:06;;;;;;;6.60;2.70;;;;;;;5.00;80.61;97369.41;79723;1295;3013611;-69
2024/02/05 08:46:33;;;;;;;7.80;2.90;;;;;;;5.28;80.49;97362.91;79935;1296;3011649;-68
2024/02/05 08:49:01;;;;;;;4.40;2.50;;;;;;;6.10;78.25;97353.48;78577;1297;3052951;-71
2024/02/05 08:51:30;;;;;;;7.50;3.10;;;;;;;6.51;76.19;97361.04;79782;1297;3013697;-69
2024/02/05 08:53:59;;;;;;;8.10;2.80;;;;;;;6.46;75.43;97359.89;79272;1292;3013247;-68
2024/02/05 08:56:25;;;;;;;5.80;2.70;;;;;;;6.18;75.41;97368.94;79873;1294;3013215;-66
2024/02/05 08:58:52;;;;;;;6.10;2.90;;;;;;;6.06;75.95;97357.15;79857;1297;3013591;-69
2024/02/05 09:01:20;;;;;;;4.90;2.20;;;;;;;5.95;76.16;97355.54;78503;1298;3027392;-69
2024/02/05 09:03:47;;;;;;;7.40;1.90;;;;;;;5.88;76.32;97353.58;79759;1297;3019285;-65
2024/02/05 09:06:15;;;;;;;5.80;2.80;;;;;;;5.93;76.21;97354.27;79778;1298;3011687;-72
2024/02/05 09:08:43;;;;;;;3.00;1.90;;;;;;;5.72;76.71;97339.34;78594;1297;3051424;-73
2024/02/05 09:11:09;;;;;;;9.30;3.00;;;;;;;5.77;76.46;97353.42;79740;1296;3012615;-75
2024/02/05 09:13:36;;;;;;;7.00;2.60;;;;;;;5.81;76.09;97351.66;79765;1295;3013141;-74
2024/02/05 09:16:05;;;;;;;4.30;2.40;;;;;;;5.84;75.79;97329.61;78550;1297;3026122;-71
2024/02/05 09:18:31;;;;;;;3.30;2.10;;;;;;;5.79;75.83;97335.14;79766;1298;3013652;-70
2024/02/05 09:20:58;;;;;;;6.90;2.90;;;;;;;5.91;75.29;97343.85;79815;1295;3011626;-68
2024/02/05 09:23:26;;;;;;;6.00;3.20;;;;;;;5.76;75.25;97330.01;78394;1292;3049401;-70
2024/02/05 09:25:53;;;;;;;7.30;3.50;;;;;;;5.81;75.04;97338.46;79778;1298;3013296;-71
2024/02/05 09:28:20;;;;;;;7.30;3.30;;;;;;;5.91;74.50;97339.86;79923;1298;3012000;-70
2024/02/05 09:30:49;;;;;;;7.20;3.10;;;;;;;5.99;74.31;97332.44;78755;1298;3049342;-69
2024/02/05 09:33:15;;;;;;;5.40;2.70;;;;;;;6.16;73.36;97340.79;79850;1294;3013444;-70
2024/02/05 09:35:43;;;;;;;6.40;2.80;;;;;;;6.09;73.35;97325.61;79855;1295;3012619;-80
2024/02/05 09:38:13;;;;;;;11.60;3.00;;;;;;;6.06;73.29;97310.23;78578;1296;3050563;-70
2024/02/05 09:40:39;;;;;;;8.30;3.20;;;;;;;6.04;73.11;97319.24;79964;1295;3013373;-68
2024/02/05 09:43:08;;;;;;;13.30;4.80;;;;;;;6.03;73.02;97314.13;79654;1295;3011877;-72
2024/02/05 09:45:36;;;;;;;5.90;2.60;;;;;;;6.28;72.46;97322.66;78818;1299;3050032;-69
2024/02/05 09:48:04;;;;;;;6.90;2.20;;;;;;;6.17;72.35;97323.80;79542;1295;3014810;-70
2024/02/05 09:50:31;;;;;;;6.40;2.50;;;;;;;6.38;71.46;97324.64;79528;1296;3011829;-69
2024/02/05 09:52:59;;;;;;;8.70;3.00;;;;;;;6.23;71.49;97316.40;78445;1295;3050304;-72
2024/02/05 09:55:27;;;;;;;6.60;2.80;;;;;;;6.33;71.99;97306.26;79481;1296;3013162;-69
2024/02/05 09:57:54;;;;;;;5.80;2.70;;;;;;;6.35;72.05;97290.95;79502;1297;3011605;-70
2024/02/05 10:00:22;;;;;;;4.40;1.80;;;;;;;6.24;72.06;97310.27;78258;1298;3049276;-70
2024/02/05 10:02:48;;;;;;;3.30;1.90;;;;;;;6.34;72.04;97320.95;79553;1295;3012884;-70
2024/02/05 10:05:17;;;;;;;4.90;1.70;;;;;;;6.28;72.43;97293.08;79671;1298;3011574;-69
2024/02/05 10:07:46;;;;;;;4.80;1.80;;;;;;;6.33;72.86;97290.25;78641;1295;3052352;-72
2024/02/05 10:10:14;;;;;;;6.30;1.70;;;;;;;6.20;73.42;97291.23;79670;1296;3012996;-72
2024/02/05 10:12:44;;;;;;;3.20;1.70;;;;;;;6.25;73.45;97276.98;79042;1296;3013188;-72
2024/02/05 10:15:11;;;;;;;3.40;1.70;;;;;;;6.16;73.30;97279.55;79498;1296;3012970;-68
2024/02/05 10:17:38;;;;;;;4.30;1.70;;;;;;;6.21;72.71;97253.83;79561;1295;3011890;-69
2024/02/05 10:20:12;;;;;;;3.40;2.00;;;;;;;6.29;72.80;97257.41;78491;1298;3051445;-70
2024/02/05 10:22:49;;;;;;;4.00;2.00;;;;;;;6.44;72.31;97255.69;79248;1298;3011687;-68
2024/02/05 10:25:16;;;;;;;3.20;1.40;;;;;;;6.38;71.65;97248.52;78488;1296;3068389;-69
2024/02/05 10:27:43;;;;;;;3.80;1.60;;;;;;;6.37;71.32;97256.20;79805;1294;3012901;-71
2024/02/05 10:30:10;;;;;;;4.80;1.70;;;;;;;6.26;71.81;97244.05;79719;1296;3011696;-71
2024/02/05 10:32:39;;;;;;;3.10;1.40;;;;;;;6.43;71.54;97241.71;78480;1293;3053359;-69
2024/02/05 10:35:08;;;;;;;4.80;1.80;;;;;;;6.55;71.16;97228.36;79791;1298;3013115;-70
2024/02/05 10:37:34;;;;;;;2.00;1.30;;;;;;;6.58;71.52;97229.34;79824;1298;3012805;-71
2024/02/05 10:40:08;;;;;;;2.90;1.60;;;;;;;6.84;70.49;97251.08;78578;1294;3068812;-69
2024/02/05 10:42:34;;;;;;;2.30;1.40;;;;;;;6.90;69.87;97229.19;79796;1298;3013061;-67
2024/02/05 10:45:07;;;;;;;8.60;2.40;;;;;;;6.84;68.71;97238.91;78605;1296;3056817;-66
2024/02/05 10:47:36;;;;;;;6.40;2.50;;;;;;;6.60;69.69;97229.91;80021;1295;3012927;-67
2024/02/05 10:50:09;;;;;;;4.10;1.90;;;;;;;6.55;69.87;97235.85;78501;1298;3053340;-68
2024/02/05 10:52:39;;;;;;;4.10;1.80;;;;;;;6.49;70.43;97211.95;79825;1298;3011527;-68
2024/02/05 10:55:08;;;;;;;3.00;1.60;;;;;;;6.57;70.32;97238.11;78538;1298;3053092;-69
2024/02/05 10:57:36;;;;;;;6.10;2.20;;;;;;;6.56;70.42;97221.67;79751;1298;3012996;-68
2024/02/05 11:00:08;;;;;;;5.90;2.80;;;;;;;6.59;71.00;97209.60;79374;1295;3011486;-65
2024/02/05 11:02:38;;;;;;;5.50;2.60;;;;;;;6.48;71.54;97218.84;79796;1295;3011925;-66
2024/02/05 11:05:06;;;;;;;5.30;2.30;;;;;;;6.44;72.06;97202.09;78690;1298;3057697;-68
2024/02/05 11:07:35;;;;;;;3.90;1.80;;;;;;;6.34;72.70;97217.86;80043;1295;3012986;-68
2024/02/05 11:10:02;;;;;;;3.50;1.50;;;;;;;6.37;72.44;97204.25;79721;1294;3011821;-68
2024/02/05 11:12:31;;;;;;;5.90;2.50;;;;;;;6.28;73.29;97180.05;78570;1301;3053791;-69
2024/02/05 11:15:04;;;;;;;10.00;2.50;;;;;;;6.18;73.01;97203.61;79611;1298;3012905;-70
2024/02/05 11:17:33;;;;;;;8.00;2.50;;;;;;;6.19;73.08;97211.15;78475;1298;3051722;-68
2024/02/05 11:20:03;;;;;;;6.30;2.60;;;;;;;6.15;73.08;97178.97;79520;1295;3011454;-70
2024/02/05 11:22:32;;;;;;;7.00;2.50;;;;;;;6.08;73.65;97164.82;78480;1297;3049410;-69
2024/02/05 11:24:58;;;;;;;12.00;3.60;;;;;;;6.03;74.52;97154.73;79662;1299;3018917;-71
2024/02/05 11:27:25;;;;;;;11.20;4.70;;;;;;;6.04;75.13;97168.04;79606;1296;3011499;-71
2024/02/05 11:29:53;;;;;;;11.00;5.10;;;;;;;5.98;75.76;97159.98;78638;1298;3026096;-70